Time;durP1;ratioP1;P1;durP2;ratioP2;P2;SDS_P1;SDS_P2;PMS_P1;PMS_P2;Temp;Humidity;BMP_temperature;BMP_pressure;BME280_temperature;BME280_humidity;BME280_pressure;Samples;Min_cycle;Max_cycle;Signal;HPM_P1;HPM_P2
2023/03/09 00:00:57;;;;;;;53.43;22.33;;;;;2.30;98419.00;;;;9695118;30;20619;-80
2023/03/09 00:05:59;;;;;;;59.67;24.17;;;;;2.30;98389.00;;;;9672462;30;20215;-79
2023/03/09 00:11:04;;;;;;;57.93;22.67;;;;;2.20;98396.00;;;;9700080;30;20235;-79
2023/03/09 00:16:13;;;;;;;55.63;21.53;;;;;2.20;98425.00;;;;9706030;30;20203;-79
2023/03/09 00:21:25;;;;;;;51.77;21.43;;;;;2.20;98429.00;;;;9709843;30;20215;-81
2023/03/09 00:26:27;;;;;;;55.10;23.07;;;;;2.30;98444.00;;;;9674632;30;20223;-80
2023/03/09 00:31:29;;;;;;;53.37;22.27;;;;;2.30;98492.00;;;;9694114;30;20207;-79
2023/03/09 00:36:32;;;;;;;46.37;19.53;;;;;2.30;98520.00;;;;9688697;30;20205;-80
2023/03/09 00:41:34;;;;;;;47.70;19.93;;;;;2.20;98557.00;;;;9701125;30;20261;-80
2023/03/09 00:46:36;;;;;;;58.83;21.53;;;;;2.20;98561.00;;;;9686481;30;20220;-80
2023/03/09 00:51:39;;;;;;;63.33;24.33;;;;;2.20;98583.00;;;;9707504;30;20210;-79
2023/03/09 00:56:42;;;;;;;60.67;22.97;;;;;2.20;98579.00;;;;9694288;30;20782;-79
2023/03/09 01:01:44;;;;;;;77.53;27.80;;;;;2.10;98588.00;;;;9693550;30;20290;-80
2023/03/09 01:06:46;;;;;;;76.93;27.03;;;;;2.10;98597.00;;;;9706933;30;20242;-80
2023/03/09 01:11:48;;;;;;;78.23;27.97;;;;;2.10;98596.00;;;;9686214;30;20234;-80
2023/03/09 01:16:50;;;;;;;82.43;29.77;;;;;2.20;98597.00;;;;9692785;30;20278;-80
2023/03/09 01:21:53;;;;;;;94.60;33.30;;;;;2.20;98601.00;;;;9701107;30;20200;-80
2023/03/09 01:26:56;;;;;;;89.73;30.90;;;;;2.20;98598.00;;;;9694312;30;20210;-80
2023/03/09 01:31:58;;;;;;;87.30;30.60;;;;;2.30;98606.00;;;;9676197;30;20215;-80
2023/03/09 01:36:59;;;;;;;96.13;32.20;;;;;2.30;98607.00;;;;9714916;30;20242;-81
2023/03/09 01:42:01;;;;;;;86.27;30.40;;;;;2.30;98625.00;;;;9708982;30;20651;-80
2023/03/09 01:47:04;;;;;;;100.77;34.20;;;;;2.30;98612.00;;;;9690564;30;20230;-80
2023/03/09 01:52:18;;;;;;;104.33;33.27;;;;;2.30;98620.00;;;;9661038;30;20243;-80
2023/03/09 01:57:26;;;;;;;102.63;33.47;;;;;2.30;98635.00;;;;9675372;30;20316;-81
2023/03/09 02:02:31;;;;;;;100.77;33.67;;;;;2.30;98633.00;;;;9713482;30;20215;-81
2023/03/09 02:07:42;;;;;;;113.83;35.37;;;;;2.30;98641.00;;;;9703330;30;20246;-79
2023/03/09 02:12:52;;;;;;;102.57;33.53;;;;;2.30;98639.00;;;;9706262;30;20579;-79
2023/03/09 02:17:57;;;;;;;113.97;35.90;;;;;2.30;98646.00;;;;9695617;30;20203;-81
2023/03/09 02:23:02;;;;;;;113.87;34.93;;;;;2.20;98629.00;;;;9710644;30;20279;-81
2023/03/09 02:28:06;;;;;;;112.93;37.30;;;;;2.20;98641.00;;;;9693611;30;20289;-82
2023/03/09 02:33:25;;;;;;;101.03;33.27;;;;;2.20;98629.00;;;;9696993;30;20203;-80
2023/03/09 02:38:29;;;;;;;109.27;35.27;;;;;2.20;98638.00;;;;9694581;30;20705;-80
2023/03/09 02:43:39;;;;;;;104.77;35.53;;;;;2.20;98634.00;;;;9695978;30;20753;-81
2023/03/09 02:48:41;;;;;;;105.93;35.20;;;;;2.30;98651.00;;;;9709076;30;20199;-80
2023/03/09 02:53:43;;;;;;;108.40;35.00;;;;;2.30;98644.00;;;;9711413;30;20207;-79
2023/03/09 02:58:47;;;;;;;90.13;32.13;;;;;2.30;98646.00;;;;9682191;30;20292;-81
2023/03/09 03:03:51;;;;;;;90.87;33.73;;;;;2.20;98634.00;;;;9662314;30;20222;-83
2023/03/09 03:08:53;;;;;;;100.40;34.00;;;;;2.20;98642.00;;;;9701474;30;20227;-82
2023/03/09 03:13:56;;;;;;;94.93;30.73;;;;;2.20;98664.00;;;;9676574;30;20219;-80
2023/03/09 03:18:59;;;;;;;102.63;32.77;;;;;2.20;98670.00;;;;9693368;30;20202;-82
2023/03/09 03:24:06;;;;;;;98.70;32.87;;;;;2.20;98671.00;;;;9673096;30;20218;-81
2023/03/09 03:29:10;;;;;;;96.40;32.57;;;;;2.20;98678.00;;;;9677274;30;20203;-83
2023/03/09 03:34:12;;;;;;;85.90;29.47;;;;;2.20;98680.00;;;;9670730;30;20196;-81
2023/03/09 03:39:18;;;;;;;82.10;28.10;;;;;2.20;98676.00;;;;9673116;30;20207;-82
2023/03/09 03:44:22;;;;;;;77.87;28.60;;;;;2.20;98674.00;;;;9707806;30;20718;-82
2023/03/09 03:49:25;;;;;;;88.10;29.53;;;;;2.20;98680.00;;;;9722680;30;20215;-82
2023/03/09 03:54:28;;;;;;;77.57;27.97;;;;;2.20;98689.00;;;;9682268;30;20199;-82
2023/03/09 03:59:32;;;;;;;63.50;23.30;;;;;2.20;98701.00;;;;9702293;30;20199;-81
2023/03/09 04:04:34;;;;;;;63.23;23.57;;;;;2.20;98711.00;;;;9702131;30;20250;-82
2023/03/09 04:09:42;;;;;;;61.63;24.30;;;;;2.20;98716.00;;;;9701232;30;20231;-80
2023/03/09 04:14:45;;;;;;;74.80;26.13;;;;;2.20;98721.00;;;;9709837;30;20213;-80
2023/03/09 04:19:47;;;;;;;64.63;24.37;;;;;2.20;98734.00;;;;9713397;30;20269;-82
2023/03/09 04:24:49;;;;;;;73.63;25.00;;;;;2.20;98742.00;;;;9700994;30;20223;-81
2023/03/09 04:29:52;;;;;;;68.37;26.23;;;;;2.30;98757.00;;;;9684859;30;20206;-82
2023/03/09 04:34:58;;;;;;;70.93;24.43;;;;;2.30;98762.00;;;;9682079;30;20237;-82
2023/03/09 04:40:00;;;;;;;70.73;26.27;;;;;2.30;98761.00;;;;9697855;30;20206;-82
2023/03/09 04:45:05;;;;;;;55.67;22.47;;;;;2.30;98757.00;;;;9703288;30;20261;-82
2023/03/09 04:50:09;;;;;;;63.33;24.80;;;;;2.30;98768.00;;;;9712800;30;20667;-82
2023/03/09 04:55:16;;;;;;;66.67;23.20;;;;;2.30;98781.00;;;;9684777;30;20231;-81
2023/03/09 05:00:19;;;;;;;58.47;21.77;;;;;2.30;98788.00;;;;9689420;30;20203;-82
2023/03/09 05:05:22;;;;;;;60.33;23.30;;;;;2.30;98797.00;;;;9691964;30;20211;-82
2023/03/09 05:10:28;;;;;;;56.53;21.87;;;;;2.30;98808.00;;;;9700984;30;20719;-81
2023/03/09 05:15:32;;;;;;;61.40;22.03;;;;;2.20;98825.00;;;;9687609;30;20209;-80
2023/03/09 05:20:37;;;;;;;56.97;20.90;;;;;2.20;98831.00;;;;9685830;30;20721;-81
2023/03/09 05:25:40;;;;;;;56.70;21.57;;;;;2.20;98823.00;;;;9696628;30;20337;-81
2023/03/09 05:30:44;;;;;;;51.20;19.07;;;;;2.20;98842.00;;;;9687008;30;20215;-81
2023/03/09 05:35:48;;;;;;;51.63;20.60;;;;;2.20;98846.00;;;;9681701;30;20267;-81
2023/03/09 05:40:50;;;;;;;47.40;20.20;;;;;2.20;98852.00;;;;9701274;30;20246;-81
2023/03/09 05:45:56;;;;;;;55.53;23.03;;;;;2.20;98859.00;;;;9659695;30;20223;-81
2023/03/09 05:51:01;;;;;;;59.53;23.43;;;;;2.20;98873.00;;;;9686509;30;20766;-81
2023/03/09 05:56:05;;;;;;;60.23;22.23;;;;;2.20;98883.00;;;;9682957;30;20209;-81
2023/03/09 06:01:22;;;;;;;62.07;21.93;;;;;2.20;98899.00;;;;9698091;30;20688;-80
2023/03/09 06:06:28;;;;;;;64.50;22.57;;;;;2.20;98906.00;;;;9686722;30;20219;-79
2023/03/09 06:11:32;;;;;;;62.17;23.20;;;;;2.20;98923.00;;;;9703484;30;20242;-79
2023/03/09 06:16:34;;;;;;;66.73;23.23;;;;;2.20;98921.00;;;;9708615;30;20253;-79
2023/03/09 06:21:36;;;;;;;75.80;24.77;;;;;2.20;98936.00;;;;9692403;30;20207;-81
2023/03/09 06:26:39;;;;;;;61.27;23.83;;;;;2.30;98943.00;;;;9670339;30;20254;-80
2023/03/09 06:31:45;;;;;;;60.50;23.03;;;;;2.30;98950.00;;;;9699832;30;20701;-80
2023/03/09 06:36:47;;;;;;;62.50;24.33;;;;;2.30;98946.00;;;;9699233;30;20263;-81
2023/03/09 06:41:49;;;;;;;59.67;21.87;;;;;2.40;98973.00;;;;9671504;30;20265;-79
2023/03/09 06:47:18;;;;;;;53.13;20.27;;;;;2.50;98966.00;;;;9692560;30;20215;-81
2023/03/09 06:52:26;;;;;;;56.30;22.90;;;;;2.60;98975.00;;;;9695541;30;20208;-80
2023/03/09 06:57:28;;;;;;;57.07;23.30;;;;;2.60;98984.00;;;;9669511;30;20676;-80
2023/03/09 07:02:31;;;;;;;59.70;20.80;;;;;2.60;98993.00;;;;9708901;30;20668;-81
2023/03/09 07:07:35;;;;;;;48.23;19.53;;;;;2.60;99016.00;;;;9665779;30;20265;-80
2023/03/09 07:12:38;;;;;;;56.63;21.73;;;;;2.60;99024.00;;;;9675568;30;20213;-80
2023/03/09 07:17:40;;;;;;;51.03;20.70;;;;;2.70;99041.00;;;;9683867;30;20293;-80
2023/03/09 07:22:42;;;;;;;59.90;22.33;;;;;2.90;99042.00;;;;9687048;30;20275;-81
2023/03/09 07:27:44;;;;;;;56.30;21.20;;;;;3.10;99050.00;;;;9690010;30;20261;-80
2023/03/09 07:32:46;;;;;;;46.87;19.87;;;;;3.20;99064.00;;;;9714599;30;20207;-80
2023/03/09 07:37:48;;;;;;;51.10;20.17;;;;;3.10;99080.00;;;;9699762;30;20812;-82
2023/03/09 07:42:53;;;;;;;50.90;19.37;;;;;3.10;99077.00;;;;9701940;30;20207;-81
2023/03/09 07:48:12;;;;;;;57.63;21.43;;;;;3.20;99114.00;;;;9684068;30;20206;-82
2023/03/09 07:53:14;;;;;;;61.97;21.40;;;;;3.30;99115.00;;;;9698118;30;20243;-81
2023/03/09 07:58:16;;;;;;;59.00;21.43;;;;;3.40;99116.00;;;;9709114;30;20221;-82
2023/03/09 08:03:18;;;;;;;60.57;22.67;;;;;3.60;99110.00;;;;9699926;30;20738;-81
2023/03/09 08:08:27;;;;;;;67.23;21.37;;;;;3.70;99110.00;;;;9693810;30;20266;-80
2023/03/09 08:13:30;;;;;;;74.23;22.57;;;;;3.90;99102.00;;;;9694634;30;20215;-79
2023/03/09 08:18:33;;;;;;;72.13;20.87;;;;;4.10;99125.00;;;;9677490;30;20205;-80
2023/03/09 08:23:40;;;;;;;67.50;21.53;;;;;4.10;99137.00;;;;9677408;30;20587;-81
2023/03/09 08:28:46;;;;;;;77.67;23.13;;;;;3.90;99142.00;;;;9675697;30;20294;-80
2023/03/09 08:33:49;;;;;;;73.67;26.03;;;;;3.90;99133.00;;;;9719054;30;20192;-79
2023/03/09 08:38:54;;;;;;;77.50;25.53;;;;;4.10;99147.00;;;;9692725;30;20706;-81
2023/03/09 08:43:59;;;;;;;79.93;27.00;;;;;4.20;99151.00;;;;9689975;30;20249;-80
2023/03/09 08:49:02;;;;;;;87.23;28.40;;;;;4.40;99160.00;;;;9656730;30;20203;-80
2023/03/09 08:54:05;;;;;;;81.50;28.90;;;;;4.70;99164.00;;;;9660910;30;20207;-80
2023/03/09 08:59:07;;;;;;;84.57;28.53;;;;;5.00;99162.00;;;;9658296;30;20262;-81
2023/03/09 09:04:09;;;;;;;84.13;26.57;;;;;5.10;99169.00;;;;9690999;30;20215;-81
2023/03/09 09:09:11;;;;;;;83.80;28.00;;;;;5.20;99166.00;;;;9670699;30;20227;-81
2023/03/09 09:14:15;;;;;;;95.33;28.10;;;;;5.40;99181.00;;;;9703669;30;20218;-80
2023/03/09 09:19:18;;;;;;;86.73;28.37;;;;;5.60;99178.00;;;;9675523;30;20783;-79
2023/03/09 09:24:22;;;;;;;91.27;28.67;;;;;5.70;99175.00;;;;9699938;30;20839;-79
2023/03/09 09:29:24;;;;;;;88.10;27.83;;;;;6.00;99177.00;;;;9702968;30;20210;-79
2023/03/09 09:34:31;;;;;;;90.43;26.00;;;;;6.10;99179.00;;;;9668860;30;20207;-79
2023/03/09 09:39:33;;;;;;;121.03;31.50;;;;;6.80;99186.00;;;;9700342;30;20230;-78
2023/03/09 09:44:40;;;;;;;91.60;27.93;;;;;7.20;99174.00;;;;9670744;30;20221;-78
2023/03/09 09:49:46;;;;;;;69.07;25.70;;;;;7.50;99171.00;;;;9657714;30;20235;-79
2023/03/09 09:55:07;;;;;;;61.40;24.50;;;;;7.30;99181.00;;;;9677725;30;20673;-78
2023/03/09 10:00:19;;;;;;;60.23;23.93;;;;;7.00;99189.00;;;;9668914;30;20863;-80
2023/03/09 10:05:46;;;;;;;53.83;21.63;;;;;7.20;99181.00;;;;9693347;30;20242;-78
2023/03/09 10:10:49;;;;;;;63.53;24.30;;;;;7.20;99186.00;;;;9677026;30;20718;-79
2023/03/09 10:15:53;;;;;;;54.87;21.77;;;;;6.90;99180.00;;;;9677620;30;20265;-78
2023/03/09 10:21:22;;;;;;;59.80;22.20;;;;;7.20;99177.00;;;;9682044;30;20647;-78
2023/03/09 10:26:46;;;;;;;59.43;22.90;;;;;7.50;99171.00;;;;9707606;30;20238;-79
2023/03/09 10:31:58;;;;;;;56.70;23.17;;;;;7.40;99168.00;;;;9691300;30;20207;-79
2023/03/09 10:37:16;;;;;;;52.73;22.33;;;;;7.20;99165.00;;;;9685791;30;20672;-80
2023/03/09 10:42:21;;;;;;;59.03;22.53;;;;;7.50;99156.00;;;;9717604;30;20223;-79
2023/03/09 10:47:23;;;;;;;62.07;24.03;;;;;7.80;99147.00;;;;9675239;30;20220;-78
2023/03/09 10:52:26;;;;;;;72.97;26.53;;;;;8.50;99140.00;;;;9689032;30;20684;-79
2023/03/09 10:57:30;;;;;;;83.87;27.77;;;;;9.20;99144.00;;;;9660609;30;20253;-79
2023/03/09 11:02:36;;;;;;;72.40;24.60;;;;;9.20;99153.00;;;;9665703;30;20207;-78
2023/03/09 11:07:38;;;;;;;58.33;25.80;;;;;8.80;99151.00;;;;9687025;30;20242;-78
2023/03/09 11:12:46;;;;;;;55.80;25.30;;;;;8.20;99160.00;;;;9699412;30;20211;-78
2023/03/09 11:17:48;;;;;;;68.53;25.10;;;;;7.80;99161.00;;;;9670670;30;20210;-78
2023/03/09 11:23:27;;;;;;;67.40;25.80;;;;;7.70;99157.00;;;;9673257;30;20222;-77
2023/03/09 11:28:41;;;;;;;71.63;27.13;;;;;7.90;99147.00;;;;9718352;30;20749;-77
2023/03/09 11:33:45;;;;;;;69.57;27.43;;;;;7.70;99148.00;;;;9719233;30;20738;-77
2023/03/09 11:38:47;;;;;;;70.13;26.10;;;;;7.80;99145.00;;;;9710499;30;20298;-78
2023/03/09 11:43:54;;;;;;;68.27;26.67;;;;;7.90;99143.00;;;;9709429;30;20211;-77
2023/03/09 11:49:14;;;;;;;77.47;27.33;;;;;8.00;99141.00;;;;9669570;30;20215;-78
2023/03/09 11:54:42;;;;;;;59.17;23.63;;;;;7.70;99141.00;;;;9682827;30;20192;-77
2023/03/09 11:59:55;;;;;;;62.73;25.30;;;;;8.10;99131.00;;;;9714817;30;20767;-77
2023/03/09 12:04:57;;;;;;;77.07;27.63;;;;;8.30;99121.00;;;;9703961;30;21367;-77
2023/03/09 12:10:28;;;;;;;61.93;25.30;;;;;8.00;99118.00;;;;9714162;30;20254;-78
2023/03/09 12:15:45;;;;;;;65.07;24.63;;;;;8.00;99123.00;;;;9706415;30;20265;-78
2023/03/09 12:20:57;;;;;;;66.27;24.23;;;;;7.90;99114.00;;;;9718527;30;20199;-78
2023/03/09 12:25:59;;;;;;;63.80;26.50;;;;;8.20;99101.00;;;;9692129;30;20365;-77
2023/03/09 12:31:01;;;;;;;73.90;27.00;;;;;8.70;99111.00;;;;9688400;30;20219;-77
2023/03/09 12:36:20;;;;;;;70.97;29.07;;;;;9.40;99103.00;;;;9696496;30;20214;-78
2023/03/09 12:41:26;;;;;;;79.73;28.43;;;;;10.20;99096.00;;;;9701554;30;20206;-78
2023/03/09 12:46:57;;;;;;;77.60;28.13;;;;;11.30;99076.00;;;;9702572;30;20749;-77
2023/03/09 12:52:11;;;;;;;78.00;28.77;;;;;11.50;99071.00;;;;9728767;30;20210;-77
2023/03/09 12:57:17;;;;;;;101.30;30.47;;;;;11.80;99056.00;;;;9690004;30;21046;-76
2023/03/09 13:02:33;;;;;;;136.17;33.03;;;;;13.10;99053.00;;;;9728693;30;20206;-75
2023/03/09 13:07:36;;;;;;;92.97;25.83;;;;;14.00;99039.00;;;;9712254;30;20237;-76
2023/03/09 13:12:38;;;;;;;45.92;8.68;;;;;14.80;99033.00;;;;9700154;30;20560;-76
2023/03/09 13:17:40;;;;;;;27.30;5.75;;;;;15.50;99037.00;;;;9712558;30;20203;-76
2023/03/09 13:22:43;;;;;;;22.83;4.95;;;;;15.80;99029.00;;;;9698287;30;20215;-76
2023/03/09 13:27:46;;;;;;;31.20;5.43;;;;;14.80;99040.00;;;;9697773;30;20230;-76
2023/03/09 13:32:57;;;;;;;28.38;5.65;;;;;14.50;99032.00;;;;9704066;30;20299;-76
2023/03/09 13:38:00;;;;;;;24.65;4.28;;;;;13.80;99034.00;;;;9690172;30;20703;-75
2023/03/09 13:43:23;;;;;;;20.27;4.80;;;;;13.30;99037.00;;;;10185756;24;20234;-77
2023/03/09 13:48:25;;;;;;;19.23;4.43;;;;;13.40;99032.00;;;;9752399;30;20225;-78
2023/03/09 13:53:28;;;;;;;20.77;4.28;;;;;13.50;99024.00;;;;9750876;30;20195;-78
2023/03/09 13:58:38;;;;;;;17.33;3.92;;;;;13.60;99027.00;;;;9737658;30;20195;-78
2023/03/09 14:03:47;;;;;;;22.10;4.85;;;;;13.10;99026.00;;;;9736106;30;20237;-78
2023/03/09 14:08:52;;;;;;;19.15;4.05;;;;;12.90;99014.00;;;;9732010;30;20194;-78
2023/03/09 14:14:08;;;;;;;20.10;4.28;;;;;12.80;99016.00;;;;9717398;30;20822;-78
2023/03/09 14:19:29;;;;;;;16.03;2.93;;;;;12.60;99021.00;;;;9720989;30;20202;-77
2023/03/09 14:24:33;;;;;;;17.25;4.47;;;;;12.70;99011.00;;;;9721801;30;20211;-77
2023/03/09 14:29:35;;;;;;;15.75;3.20;;;;;12.90;99006.00;;;;9713566;30;20571;-78
2023/03/09 14:34:37;;;;;;;17.88;3.63;;;;;12.70;99005.00;;;;9745417;30;20199;-78
2023/03/09 14:39:41;;;;;;;18.43;3.60;;;;;13.10;98985.00;;;;9727204;30;20687;-78
2023/03/09 14:45:04;;;;;;;20.05;4.57;;;;;13.60;98985.00;;;;9742412;30;20238;-77
2023/03/09 14:50:13;;;;;;;18.58;3.67;;;;;13.40;98971.00;;;;9737017;30;20202;-77
2023/03/09 14:55:21;;;;;;;15.83;3.63;;;;;13.70;98973.00;;;;9758794;30;20343;-78
2023/03/09 15:00:24;;;;;;;22.50;3.63;;;;;13.90;98963.00;;;;9714927;30;20235;-77
2023/03/09 15:05:27;;;;;;;22.73;3.88;;;;;14.20;98953.00;;;;9759406;30;20769;-77
2023/03/09 15:10:30;;;;;;;20.48;4.18;;;;;14.30;98950.00;;;;9741753;30;20208;-78
2023/03/09 15:15:32;;;;;;;24.77;4.05;;;;;14.30;98935.00;;;;9713724;30;20203;-78
2023/03/09 15:20:34;;;;;;;16.80;3.47;;;;;14.10;98930.00;;;;9705169;30;20218;-78
2023/03/09 15:25:47;;;;;;;17.13;4.38;;;;;13.80;98915.00;;;;9716482;30;20918;-78
2023/03/09 15:30:49;;;;;;;18.75;4.55;;;;;13.40;98913.00;;;;9726542;30;20206;-77
2023/03/09 15:35:52;;;;;;;13.27;3.55;;;;;13.40;98903.00;;;;9699500;30;20298;-78
2023/03/09 15:40:53;;;;;;;18.50;3.47;;;;;13.50;98893.00;;;;9725388;30;20293;-78
2023/03/09 15:45:55;;;;;;;21.70;3.38;;;;;13.20;98896.00;;;;9730252;30;20265;-78
2023/03/09 15:50:57;;;;;;;12.07;2.58;;;;;12.90;98880.00;;;;9744300;30;20198;-76
2023/03/09 15:56:00;;;;;;;15.57;3.47;;;;;12.90;98868.00;;;;9717782;30;20206;-77
2023/03/09 16:01:06;;;;;;;20.50;4.50;;;;;12.90;98865.00;;;;9723621;30;20202;-78
2023/03/09 16:06:09;;;;;;;14.83;3.47;;;;;12.70;98861.00;;;;9747297;30;20571;-77
2023/03/09 16:11:11;;;;;;;14.87;3.53;;;;;12.50;98852.00;;;;9703261;30;20205;-77
2023/03/09 16:16:14;;;;;;;22.53;4.20;;;;;12.50;98851.00;;;;9718082;30;20199;-78
2023/03/09 16:21:16;;;;;;;18.87;4.03;;;;;12.50;98841.00;;;;9752689;30;20222;-77
2023/03/09 16:26:20;;;;;;;18.80;4.20;;;;;12.40;98832.00;;;;9708080;30;20222;-78
2023/03/09 16:31:24;;;;;;;25.00;4.83;;;;;12.30;98830.00;;;;9739505;30;20203;-77
2023/03/09 16:36:28;;;;;;;18.63;4.00;;;;;12.10;98826.00;;;;9717587;30;20214;-78
2023/03/09 16:41:30;;;;;;;17.20;3.33;;;;;11.90;98818.00;;;;9709396;30;20704;-78
2023/03/09 16:46:33;;;;;;;20.20;4.37;;;;;11.60;98821.00;;;;9706970;30;20238;-78
2023/03/09 16:51:35;;;;;;;24.40;4.73;;;;;11.40;98815.00;;;;9708878;30;20215;-77
2023/03/09 16:56:37;;;;;;;19.30;4.07;;;;;11.20;98806.00;;;;9710167;30;20211;-78
2023/03/09 17:01:40;;;;;;;19.67;3.70;;;;;11.00;98796.00;;;;9723728;30;20289;-78
2023/03/09 17:06:42;;;;;;;22.57;4.73;;;;;10.90;98794.00;;;;9744950;30;20202;-78
2023/03/09 17:11:44;;;;;;;23.23;5.40;;;;;10.90;98795.00;;;;9722915;30;20203;-78
2023/03/09 17:16:46;;;;;;;17.37;4.10;;;;;10.80;98788.00;;;;9736664;30;20210;-79
2023/03/09 17:21:48;;;;;;;17.87;4.00;;;;;10.80;98777.00;;;;9718094;30;20257;-78
2023/03/09 17:26:50;;;;;;;17.60;4.53;;;;;10.70;98772.00;;;;9716512;30;20231;-78
2023/03/09 17:31:53;;;;;;;23.97;4.97;;;;;10.50;98776.00;;;;9721449;30;20237;-77
2023/03/09 17:36:55;;;;;;;31.80;5.70;;;;;10.40;98771.00;;;;9715686;30;20194;-76
2023/03/09 17:41:57;;;;;;;21.27;4.27;;;;;10.30;98758.00;;;;9696311;30;20210;-76
2023/03/09 17:46:59;;;;;;;20.23;4.07;;;;;10.30;98756.00;;;;9689937;30;20763;-76
2023/03/09 17:52:01;;;;;;;20.97;4.40;;;;;10.20;98761.00;;;;9721747;30;20285;-76
2023/03/09 17:57:04;;;;;;;21.23;3.30;;;;;10.20;98740.00;;;;9748056;30;20733;-76
2023/03/09 18:02:08;;;;;;;16.00;4.33;;;;;10.20;98736.00;;;;9750387;30;20261;-76
2023/03/09 18:07:11;;;;;;;22.57;4.77;;;;;10.10;98741.00;;;;9726242;30;20213;-77
2023/03/09 18:12:20;;;;;;;18.17;4.67;;;;;10.10;98716.00;;;;9739165;30;20617;-77
2023/03/09 18:17:22;;;;;;;21.17;4.70;;;;;10.10;98713.00;;;;9701679;30;20230;-77
2023/03/09 18:22:24;;;;;;;22.40;4.83;;;;;10.10;98700.00;;;;9714441;30;20214;-77
2023/03/09 18:27:26;;;;;;;20.60;4.43;;;;;10.10;98697.00;;;;9739662;30;20215;-78
2023/03/09 18:32:28;;;;;;;24.40;5.37;;;;;10.00;98682.00;;;;9726068;30;20319;-78
2023/03/09 18:37:31;;;;;;;17.17;4.47;;;;;10.00;98680.00;;;;9728031;30;20663;-78
2023/03/09 18:42:33;;;;;;;23.33;5.50;;;;;10.00;98660.00;;;;9745259;30;20246;-78
2023/03/09 18:47:35;;;;;;;28.80;5.37;;;;;10.00;98660.00;;;;9761916;30;20734;-78
2023/03/09 18:52:38;;;;;;;22.93;5.90;;;;;9.90;98648.00;;;;9728622;30;20289;-78
2023/03/09 18:57:40;;;;;;;21.33;5.70;;;;;9.90;98642.00;;;;9723814;30;20237;-78
2023/03/09 19:02:41;;;;;;;27.00;5.00;;;;;9.90;98623.00;;;;9719934;30;20287;-79
2023/03/09 19:07:43;;;;;;;18.20;4.80;;;;;9.90;98617.00;;;;9729039;30;20273;-78
2023/03/09 19:12:46;;;;;;;23.13;5.90;;;;;10.00;98608.00;;;;9740347;30;20795;-79
2023/03/09 19:17:48;;;;;;;16.30;3.83;;;;;10.00;98592.00;;;;9721471;30;20202;-78
2023/03/09 19:22:49;;;;;;;19.00;4.40;;;;;10.00;98590.00;;;;9735962;30;20279;-79
2023/03/09 19:27:52;;;;;;;13.77;4.13;;;;;10.00;98586.00;;;;9732412;30;20226;-79
2023/03/09 19:32:53;;;;;;;24.23;4.50;;;;;10.10;98579.00;;;;9715631;30;20207;-79
2023/03/09 19:37:56;;;;;;;13.67;4.83;;;;;10.10;98565.00;;;;9731009;30;20202;-79
2023/03/09 19:42:58;;;;;;;19.00;5.17;;;;;10.10;98540.00;;;;9729578;30;20242;-79
2023/03/09 19:48:00;;;;;;;13.63;4.90;;;;;10.00;98545.00;;;;9740336;30;20312;-78
2023/03/09 19:53:02;;;;;;;18.07;5.10;;;;;10.00;98541.00;;;;9718974;30;20214;-79
2023/03/09 19:58:04;;;;;;;22.13;5.67;;;;;10.10;98515.00;;;;9729466;30;20681;-79
2023/03/09 20:03:06;;;;;;;12.17;3.33;;;;;10.10;98481.00;;;;9719714;30;20202;-78
2023/03/09 20:08:09;;;;;;;7.30;2.87;;;;;10.20;98478.00;;;;9729558;30;20222;-78
2023/03/09 20:13:11;;;;;;;11.03;4.17;;;;;10.20;98461.00;;;;9684893;30;20222;-78
2023/03/09 20:18:13;;;;;;;8.87;3.07;;;;;10.20;98459.00;;;;9714657;30;20713;-78
2023/03/09 20:23:15;;;;;;;9.70;3.80;;;;;10.20;98463.00;;;;9740832;30;20209;-78
2023/03/09 20:28:18;;;;;;;21.53;5.30;;;;;10.20;98446.00;;;;9727992;30;20229;-78
2023/03/09 20:33:20;;;;;;;15.17;4.83;;;;;10.20;98442.00;;;;9711982;30;20214;-77
2023/03/09 20:38:22;;;;;;;17.00;4.20;;;;;10.20;98427.00;;;;9693534;30;20219;-78
2023/03/09 20:43:25;;;;;;;14.83;4.30;;;;;10.20;98420.00;;;;9735841;30;20262;-78
2023/03/09 20:48:27;;;;;;;16.73;4.17;;;;;10.20;98407.00;;;;9729886;30;20227;-78
2023/03/09 20:53:30;;;;;;;22.03;4.57;;;;;10.20;98395.00;;;;9715025;30;20249;-78
2023/03/09 20:58:32;;;;;;;12.60;3.63;;;;;10.30;98370.00;;;;9710903;30;20257;-78
2023/03/09 21:03:34;;;;;;;13.00;3.60;;;;;10.30;98363.00;;;;9702275;30;20771;-78
2023/03/09 21:08:37;;;;;;;11.67;3.10;;;;;10.30;98347.00;;;;9740556;30;20234;-79
2023/03/09 21:13:40;;;;;;;13.13;4.10;;;;;10.30;98341.00;;;;9747413;30;20214;-79
2023/03/09 21:18:42;;;;;;;11.67;3.10;;;;;10.30;98332.00;;;;9727285;30;20670;-78
2023/03/09 21:23:46;;;;;;;10.73;2.77;;;;;10.30;98318.00;;;;9730000;30;20210;-79
2023/03/09 21:28:52;;;;;;;8.37;3.30;;;;;10.30;98301.00;;;;9715009;30;20222;-78
2023/03/09 21:33:55;;;;;;;8.60;2.80;;;;;10.30;98281.00;;;;9701285;30;20252;-79
2023/03/09 21:38:57;;;;;;;8.27;2.53;;;;;10.30;98251.00;;;;9720531;30;20750;-79
2023/03/09 21:43:58;;;;;;;6.90;2.67;;;;;10.40;98261.00;;;;9719439;30;20246;-78
2023/03/09 21:49:00;;;;;;;4.77;2.20;;;;;10.40;98260.00;;;;9736258;30;20700;-79
2023/03/09 21:54:02;;;;;;;5.37;2.70;;;;;10.40;98236.00;;;;9750459;30;20290;-79
2023/03/09 21:59:06;;;;;;;9.50;3.00;;;;;10.40;98226.00;;;;9716181;30;20199;-78
2023/03/09 22:04:08;;;;;;;5.50;2.40;;;;;10.50;98238.00;;;;9702840;30;20214;-78
2023/03/09 22:09:10;;;;;;;7.40;2.70;;;;;10.50;98236.00;;;;9705881;30;20240;-78
2023/03/09 22:14:12;;;;;;;27.93;12.73;;;;;10.50;98260.00;;;;9734244;30;20687;-78
2023/03/09 22:19:14;;;;;;;6.03;2.20;;;;;10.40;98281.00;;;;9717592;30;20659;-78
2023/03/09 22:24:16;;;;;;;1.53;1.10;;;;;10.10;98290.00;;;;9709859;30;20202;-78
2023/03/09 22:29:19;;;;;;;3.87;1.30;;;;;9.90;98297.00;;;;9722814;30;20215;-78
2023/03/09 22:34:21;;;;;;;3.23;1.30;;;;;9.80;98302.00;;;;9685084;30;20199;-78
2023/03/09 22:39:23;;;;;;;4.10;1.50;;;;;9.70;98305.00;;;;9711272;30;20202;-79
2023/03/09 22:44:25;;;;;;;2.97;1.50;;;;;9.70;98304.00;;;;9689997;30;20329;-79
2023/03/09 22:49:27;;;;;;;4.57;1.77;;;;;9.70;98305.00;;;;9730218;30;20378;-78
2023/03/09 22:54:29;;;;;;;4.63;2.37;;;;;9.60;98294.00;;;;9744189;30;20289;-78
2023/03/09 22:59:31;;;;;;;5.27;1.83;;;;;9.70;98286.00;;;;9718183;30;20205;-78
2023/03/09 23:04:34;;;;;;;5.20;2.00;;;;;9.60;98287.00;;;;9738425;30;20240;-80
2023/03/09 23:09:36;;;;;;;1.40;1.30;;;;;9.60;98272.00;;;;9729294;30;20233;-80
2023/03/09 23:14:38;;;;;;;3.63;1.30;;;;;9.50;98266.00;;;;9748592;30;20202;-80
2023/03/09 23:19:40;;;;;;;1.37;1.10;;;;;9.50;98278.00;;;;9733405;30;20560;-78
2023/03/09 23:24:43;;;;;;;4.57;1.20;;;;;9.50;98264.00;;;;9742563;30;20714;-79
2023/03/09 23:29:46;;;;;;;2.17;1.23;;;;;9.50;98253.00;;;;9757574;30;20490;-79
2023/03/09 23:34:47;;;;;;;2.60;1.40;;;;;9.50;98262.00;;;;9749621;30;20649;-79
2023/03/09 23:39:49;;;;;;;3.00;1.90;;;;;9.60;98260.00;;;;9758492;30;20203;-79
2023/03/09 23:44:51;;;;;;;2.83;1.80;;;;;9.60;98263.00;;;;9764002;30;20234;-79
2023/03/09 23:49:55;;;;;;;6.70;2.00;;;;;9.70;98272.00;;;;9752932;30;20214;-80
2023/03/09 23:54:58;;;;;;;3.73;1.77;;;;;9.70;98275.00;;;;9731407;30;20206;-79
